Portada
METAR-TAF:

METAR-TAF

Aeroports :

Nassau, Bahames

latitud: 25-03N, longitud: 077-28W, altitud: 3 m

Observació

L'informe es va fer fa 52 minuts, a les 23:00 UTC
Vent 5 kt del Sud
Temperatura 24°C
Humitat 65%
Pressió 1014 hPa
Visibilitat 10 km o més
Escasses núvols a una alçada de 4000 ft

METAR: MYNN 152300Z 18005KT 9999 FEW040 24/17 A2995

Hora: 19:52 (23:52 UTC)

Pronòstic

L'informe es va fer fa 2 hores i 37 minuts, a les 21:15 UTC
Pronòstic vàlid del 16 a les 00 UTC al 16 a les 24 UTC
Vent 4 kt del Sud
Visibilitat 10 km o més
Escasses núvols a una alçada de 3000 ft

TAF: MYNN 152115Z 1600/1624 18004KT 9999 FEW030

Observacions i pronòstics meteorològics de més de 4000 aeroports (METAR i TAF).

Les estacions disponibles són els punts grocs i vermells al mapa.

Posi el ratolí al punt desitjat per veure el nom de l'estació.

Feu clic per veure les observacions i els pronòstics meteorològics.

Per canviar el mapa: feu clic els botons verds amb una creu de color negre per apropar; al botó verd amb un guió per allunyar la imatge; o en les fletxes verdes per a mapes adjacents.


METAR-TAF: